createdAt,value
2022-09-20T00:01:38.175Z,101042.67
2022-09-20T00:04:07.166Z,101042.48
2022-09-20T00:06:35.516Z,101045.29
2022-09-20T00:09:05.515Z,101044.75
2022-09-20T00:11:35.488Z,101047.70
2022-09-20T00:14:06.137Z,101046.13
2022-09-20T00:16:36.843Z,101050.48
2022-09-20T00:19:07.929Z,101044.02
2022-09-20T00:21:39.296Z,101045.05
2022-09-20T00:24:07.366Z,101044.52
2022-09-20T00:26:35.441Z,101044.00
2022-09-20T00:29:05.518Z,101042.27
2022-09-20T00:31:34.179Z,101045.23
2022-09-20T00:34:20.949Z,101038.07
2022-09-20T00:36:49.023Z,101034.92
2022-09-20T00:39:17.399Z,101048.91
2022-09-20T00:41:46.227Z,101058.52
2022-09-20T00:44:45.691Z,101060.65
2022-09-20T00:47:24.721Z,101064.86
2022-09-20T00:50:01.635Z,101066.96
2022-09-20T00:52:31.101Z,101071.16
2022-09-20T00:55:00.519Z,101069.77
2022-09-20T00:57:28.878Z,101069.08
2022-09-20T00:59:57.317Z,101070.64
2022-09-20T01:02:29.580Z,101067.52
2022-09-20T01:04:58.438Z,101062.81
2022-09-20T01:07:27.515Z,101056.36
2022-09-20T01:09:55.835Z,101052.17
2022-09-20T01:12:29.598Z,101054.08
2022-09-20T01:14:59.667Z,101053.40
2022-09-20T01:17:31.880Z,101050.97
2022-09-20T01:20:19.574Z,101044.68
2022-09-20T01:23:00.031Z,101040.83
2022-09-20T01:25:54.255Z,101037.69
2022-09-20T01:28:22.900Z,101030.52
2022-09-20T01:31:14.383Z,101030.35
2022-09-20T01:33:54.098Z,101034.37
2022-09-20T01:36:27.904Z,101042.05
2022-09-20T01:39:11.643Z,101046.42
2022-09-20T01:41:58.924Z,101043.63
2022-09-20T01:44:36.302Z,101040.85
2022-09-20T01:47:20.568Z,101038.23
2022-09-20T01:50:03.214Z,101042.42
2022-09-20T01:52:49.308Z,101044.17
2022-09-20T01:55:54.508Z,101049.07
2022-09-20T01:58:40.648Z,101048.92
2022-09-20T02:01:41.484Z,101046.50
2022-09-20T02:04:33.826Z,101042.85
2022-09-20T02:07:17.046Z,101045.98
2022-09-20T02:10:23.836Z,101046.52
2022-09-20T02:13:12.374Z,101049.85
2022-09-20T02:16:10.793Z,101051.96
2022-09-20T02:18:44.933Z,101052.85
2022-09-20T02:21:38.744Z,101052.34
2022-09-20T02:24:09.784Z,101057.39
2022-09-20T02:27:03.046Z,101062.83
2022-09-20T02:29:31.422Z,101062.83
2022-09-20T02:32:08.460Z,101066.84
2022-09-20T02:34:59.924Z,101067.90
2022-09-20T02:37:33.640Z,101067.20
2022-09-20T02:40:07.469Z,101068.25
2022-09-20T02:42:46.276Z,101074.70
2022-09-20T02:45:51.408Z,101079.07
2022-09-20T02:48:27.756Z,101078.52
2022-09-20T02:51:12.888Z,101081.15
2022-09-20T02:54:03.935Z,101086.02
2022-09-20T02:56:43.475Z,101090.39
2022-09-20T02:59:32.026Z,101092.66
2022-09-20T03:02:30.844Z,101092.65
2022-09-20T03:05:30.226Z,101085.84
2022-09-20T03:08:34.097Z,101083.06
2022-09-20T03:11:29.954Z,101084.11
2022-09-20T03:14:11.028Z,101087.27
2022-09-20T03:17:03.881Z,101085.16
2022-09-20T03:19:37.582Z,101081.16
2022-09-20T03:22:39.443Z,101089.88
2022-09-20T03:25:38.107Z,101089.01
2022-09-20T03:28:35.980Z,101087.97
2022-09-20T03:31:22.047Z,101087.62
2022-09-20T03:34:03.683Z,101085.88
2022-09-20T03:36:40.456Z,101090.94
2022-09-20T03:39:20.435Z,101096.53
2022-09-20T03:42:13.083Z,101098.29
2022-09-20T03:44:59.561Z,101096.70
2022-09-20T03:47:51.999Z,101100.36
2022-09-20T03:50:22.731Z,101101.41
2022-09-20T03:53:15.300Z,101101.77
2022-09-20T03:55:52.239Z,101106.99
2022-09-20T03:58:45.169Z,101109.79
2022-09-20T04:01:32.756Z,101110.13
2022-09-20T04:04:39.103Z,101108.73
2022-09-20T04:07:48.750Z,101106.82
2022-09-20T04:10:47.015Z,101114.48
2022-09-20T04:13:36.910Z,101117.98
2022-09-20T04:16:23.586Z,101120.42
2022-09-20T04:19:13.453Z,101121.11
2022-09-20T04:21:48.944Z,101126.02
2022-09-20T04:24:16.806Z,101123.92
2022-09-20T04:26:49.856Z,101128.80
2022-09-20T04:29:42.195Z,101132.12
2022-09-20T04:32:10.464Z,101129.34
2022-09-20T04:35:23.220Z,101129.51
2022-09-20T04:37:53.072Z,101128.80
2022-09-20T04:40:30.697Z,101129.48
2022-09-20T04:43:52.564Z,101133.13
2022-09-20T04:46:55.814Z,101137.84
2022-09-20T04:49:54.661Z,101143.77
2022-09-20T04:52:37.687Z,101144.13
2022-09-20T04:55:09.682Z,101146.22
2022-09-20T04:57:38.260Z,101141.68
2022-09-20T05:00:15.874Z,101144.47
2022-09-20T05:03:26.992Z,101145.52
2022-09-20T05:06:14.628Z,101149.17
2022-09-20T05:08:58.811Z,101152.31
2022-09-20T05:11:51.824Z,101153.19
2022-09-20T05:17:25.649Z,101159.80
2022-09-20T05:20:12.564Z,101168.88
2022-09-20T05:22:43.501Z,101173.58
2022-09-20T05:25:38.685Z,101178.29
2022-09-20T05:28:07.142Z,101177.06
2022-09-20T05:30:41.200Z,101183.86
2022-09-20T05:33:24.423Z,101184.75
2022-09-20T05:36:12.362Z,101188.40
2022-09-20T05:38:56.411Z,101190.48
2022-09-20T05:41:38.195Z,101190.15
2022-09-20T05:44:43.708Z,101193.63
2022-09-20T05:47:29.629Z,101197.98
2022-09-20T05:50:13.178Z,101198.34
2022-09-20T05:52:47.442Z,101204.09
2022-09-20T05:55:52.819Z,101206.88
2022-09-20T05:58:23.794Z,101210.02
2022-09-20T06:00:59.615Z,101207.07
2022-09-20T06:03:54.623Z,101211.45
2022-09-20T06:06:32.686Z,101207.45
2022-09-20T06:09:06.751Z,101209.02
2022-09-20T06:12:04.088Z,101211.28
2022-09-20T06:15:05.754Z,101218.42
2022-09-20T06:17:56.857Z,101210.05
2022-09-20T06:20:28.124Z,101211.63
2022-09-20T06:22:59.244Z,101212.67
2022-09-20T06:25:57.337Z,101221.05
2022-09-20T06:28:35.619Z,101217.41
2022-09-20T06:31:08.024Z,101216.36
2022-09-20T06:33:55.018Z,101216.36
2022-09-20T06:36:51.562Z,101217.40
2022-09-20T06:40:07.498Z,101222.09
2022-09-20T06:42:36.244Z,101220.15
2022-09-20T06:45:05.124Z,101223.63
2022-09-20T06:47:35.723Z,101223.77
2022-09-20T06:50:07.502Z,101224.97
2022-09-20T06:52:35.886Z,101229.98
2022-09-20T06:55:07.528Z,101230.46
2022-09-20T06:57:38.048Z,101236.54
2022-09-20T07:00:10.371Z,101233.52
2022-09-20T07:02:38.644Z,101240.64
2022-09-20T07:05:07.693Z,101238.67
2022-09-20T07:07:35.658Z,101241.79
2022-09-20T07:10:03.770Z,101249.79
2022-09-20T07:12:34.127Z,101249.04
2022-09-20T07:15:02.384Z,101251.59
2022-09-20T07:17:30.417Z,101253.63
2022-09-20T07:19:58.355Z,101252.84
2022-09-20T07:22:27.989Z,101252.93
2022-09-20T07:24:55.942Z,101250.43
2022-09-20T07:27:26.458Z,101251.77
2022-09-20T07:29:57.424Z,101254.47
2022-09-20T07:32:25.431Z,101258.57
2022-09-20T07:34:53.465Z,101258.48
2022-09-20T07:37:21.742Z,101257.30
2022-09-20T07:39:50.116Z,101258.43
2022-09-20T07:42:18.085Z,101262.41
2022-09-20T07:44:46.283Z,101263.45
2022-09-20T07:47:18.242Z,101264.79
2022-09-20T07:49:46.192Z,101268.10
2022-09-20T07:52:14.827Z,101271.58
2022-09-20T07:54:42.793Z,101275.74
2022-09-20T07:57:10.817Z,101273.58
2022-09-20T07:59:38.886Z,101274.54
2022-09-20T08:02:06.916Z,101281.23
2022-09-20T08:04:35.060Z,101278.30
2022-09-20T08:07:03.100Z,101278.23
2022-09-20T08:09:31.087Z,101279.88
2022-09-20T08:11:59.442Z,101278.90
2022-09-20T08:14:27.462Z,101279.44
2022-09-20T08:16:58.417Z,101278.02
2022-09-20T08:19:27.760Z,101276.54
2022-09-20T08:21:55.814Z,101276.17
2022-09-20T08:24:26.224Z,101281.67
2022-09-20T08:26:54.305Z,101280.36
2022-09-20T08:29:22.380Z,101286.47
2022-09-20T08:31:50.393Z,101284.09
2022-09-20T08:34:18.975Z,101286.30
2022-09-20T08:36:47.576Z,101285.89
2022-09-20T08:42:20.214Z,101279.13
2022-09-20T08:45:01.678Z,101273.55
2022-09-20T08:47:35.961Z,101276.16
2022-09-20T08:50:17.022Z,101279.76
2022-09-20T08:52:53.892Z,101282.42
2022-09-20T08:55:36.467Z,101289.20
2022-09-20T08:58:08.433Z,101286.27
2022-09-20T09:00:39.172Z,101286.46
2022-09-20T09:03:12.368Z,101287.15
2022-09-20T09:05:45.455Z,101289.59
2022-09-20T09:08:26.291Z,101294.27
2022-09-20T09:10:57.750Z,101293.84
2022-09-20T09:13:34.711Z,101295.65
2022-09-20T09:16:10.548Z,101297.08
2022-09-20T09:18:41.953Z,101295.45
2022-09-20T09:21:19.723Z,101296.45
2022-09-20T09:23:58.444Z,101288.10
2022-09-20T09:26:26.546Z,101288.70
2022-09-20T09:29:09.975Z,101294.78
2022-09-20T09:31:39.868Z,101290.55
2022-09-20T09:34:36.182Z,101292.98
2022-09-20T09:37:04.594Z,101293.64
2022-09-20T09:39:35.890Z,101290.31
2022-09-20T09:42:29.017Z,101293.33
2022-09-20T09:45:12.435Z,101290.85
2022-09-20T09:47:40.525Z,101283.44
2022-09-20T09:50:22.968Z,101291.57
2022-09-20T09:52:59.354Z,101290.07
2022-09-20T09:55:45.465Z,101288.23
2022-09-20T09:58:39.545Z,101283.25
2022-09-20T10:01:22.296Z,101286.48
2022-09-20T10:04:05.468Z,101290.36
2022-09-20T10:07:01.002Z,101299.94
2022-09-20T10:09:36.241Z,101315.03
2022-09-20T10:12:10.264Z,101320.22
2022-09-20T10:15:23.271Z,101323.59
2022-09-20T10:18:08.699Z,101328.23
2022-09-20T10:20:55.967Z,101330.11
2022-09-20T10:23:58.624Z,101335.81
2022-09-20T10:26:29.848Z,101339.14
2022-09-20T10:29:19.573Z,101338.59
2022-09-20T10:32:02.042Z,101334.79
2022-09-20T10:34:48.584Z,101334.66
2022-09-20T10:37:40.717Z,101338.91
2022-09-20T10:40:18.164Z,101340.00
2022-09-20T10:43:10.292Z,101343.64
2022-09-20T10:48:49.290Z,101346.94
2022-09-20T10:51:35.556Z,101352.83
2022-09-20T10:54:06.422Z,101358.73
2022-09-20T10:56:50.709Z,101356.04
2022-09-20T10:59:47.415Z,101359.83
2022-09-20T11:02:36.332Z,101366.74
2022-09-20T11:05:31.230Z,101368.95
2022-09-20T11:08:19.105Z,101366.45
2022-09-20T11:11:01.949Z,101362.55
2022-09-20T11:13:49.024Z,101363.21
2022-09-20T11:16:23.493Z,101360.53
2022-09-20T11:19:19.195Z,101360.66
2022-09-20T11:22:21.862Z,101363.58
2022-09-20T11:24:59.148Z,101366.84
2022-09-20T11:27:37.379Z,101367.45
2022-09-20T11:30:25.906Z,101369.10
2022-09-20T11:33:21.943Z,101372.80
2022-09-20T11:35:53.283Z,101382.84
2022-09-20T11:38:38.859Z,101381.84
2022-09-20T11:41:19.859Z,101386.29
2022-09-20T11:43:49.539Z,101388.12
2022-09-20T11:46:35.466Z,101396.77
2022-09-20T11:49:10.265Z,101400.44
2022-09-20T11:51:50.322Z,101399.95
2022-09-20T11:54:24.422Z,101397.16
2022-09-20T11:56:56.694Z,101397.91
2022-09-20T11:59:28.429Z,101402.02
2022-09-20T12:02:01.823Z,101402.42
2022-09-20T12:04:35.079Z,101401.42
2022-09-20T12:07:26.861Z,101410.39
2022-09-20T12:10:10.847Z,101406.35
2022-09-20T12:12:43.353Z,101407.73
2022-09-20T12:15:25.378Z,101408.75
2022-09-20T12:17:53.653Z,101408.88
2022-09-20T12:20:38.860Z,101409.56
2022-09-20T12:23:41.408Z,101410.38
2022-09-20T12:26:21.762Z,101410.36
2022-09-20T12:28:53.810Z,101409.80
2022-09-20T12:31:21.814Z,101408.55
2022-09-20T12:34:11.981Z,101413.58
2022-09-20T12:37:10.426Z,101411.95
2022-09-20T12:39:40.043Z,101413.83
2022-09-20T12:42:10.822Z,101415.20
2022-09-20T12:44:45.629Z,101413.77
2022-09-20T12:47:13.530Z,101413.95
2022-09-20T12:49:59.795Z,101409.38
2022-09-20T12:52:56.403Z,101414.98
2022-09-20T12:55:31.069Z,101417.95
2022-09-20T12:58:08.554Z,101419.40
2022-09-20T13:00:38.471Z,101417.89
2022-09-20T13:03:15.453Z,101419.50
2022-09-20T13:05:51.541Z,101419.02
2022-09-20T13:08:23.980Z,101420.94
2022-09-20T13:11:07.107Z,101427.45
2022-09-20T13:13:55.492Z,101429.59
2022-09-20T13:16:31.665Z,101434.39
2022-09-20T13:19:05.781Z,101438.78
2022-09-20T13:21:37.442Z,101437.19
2022-09-20T13:24:08.068Z,101439.98
2022-09-20T13:26:44.576Z,101440.32
2022-09-20T13:29:35.121Z,101439.77
2022-09-20T13:32:19.844Z,101439.95
2022-09-20T13:35:10.863Z,101439.97
2022-09-20T13:37:46.279Z,101440.16
2022-09-20T13:40:23.962Z,101440.18
2022-09-20T13:43:12.906Z,101437.05
2022-09-20T13:45:43.681Z,101439.16
2022-09-20T13:48:11.747Z,101434.63
2022-09-20T13:50:44.911Z,101438.31
2022-09-20T13:53:39.515Z,101435.00
2022-09-20T13:56:14.252Z,101439.77
2022-09-20T13:58:42.748Z,101439.95
2022-09-20T14:01:42.441Z,101443.64
2022-09-20T14:04:21.887Z,101448.17
2022-09-20T14:06:53.348Z,101448.02
2022-09-20T14:09:31.645Z,101449.95
2022-09-20T14:12:00.969Z,101449.95
2022-09-20T14:14:29.145Z,101449.25
2022-09-20T14:16:58.265Z,101450.48
2022-09-20T14:19:32.736Z,101456.27
2022-09-20T14:22:04.495Z,101464.54
2022-09-20T14:24:35.729Z,101463.89
2022-09-20T14:27:14.465Z,101461.02
2022-09-20T14:29:49.721Z,101465.73
2022-09-20T14:32:17.657Z,101471.47
2022-09-20T14:34:47.368Z,101480.66
2022-09-20T14:37:19.105Z,101483.20
2022-09-20T14:39:54.159Z,101489.91
2022-09-20T14:42:41.376Z,101496.80
2022-09-20T14:45:40.140Z,101492.83
2022-09-20T14:48:11.711Z,101492.19
2022-09-20T14:50:45.696Z,101492.25
2022-09-20T14:53:26.751Z,101492.67
2022-09-20T14:55:57.643Z,101494.17
2022-09-20T14:58:26.544Z,101490.57
2022-09-20T15:01:23.276Z,101498.48
2022-09-20T15:03:51.583Z,101504.13
2022-09-20T15:06:19.789Z,101510.63
2022-09-20T15:08:47.860Z,101518.16
2022-09-20T15:11:17.809Z,101522.22
2022-09-20T15:13:46.434Z,101523.81
2022-09-20T15:16:17.807Z,101526.46
2022-09-20T15:18:46.220Z,101524.02
2022-09-20T15:21:14.300Z,101521.05
2022-09-20T15:23:42.463Z,101518.27
2022-09-20T15:26:13.360Z,101521.25
2022-09-20T15:28:41.495Z,101518.11
2022-09-20T15:31:10.604Z,101521.27
2022-09-20T15:33:38.739Z,101524.43
2022-09-20T15:36:07.922Z,101521.63
2022-09-20T15:38:35.900Z,101522.17
2022-09-20T15:41:04.299Z,101521.84
2022-09-20T15:43:32.367Z,101521.84
2022-09-20T15:46:16.406Z,101523.43
2022-09-20T15:48:44.464Z,101521.86
2022-09-20T15:51:13.267Z,101524.84
2022-09-20T15:53:45.834Z,101521.00
2022-09-20T15:56:17.148Z,101523.45
2022-09-20T15:58:48.012Z,101527.48
2022-09-20T16:01:16.999Z,101526.42
2022-09-20T16:03:46.540Z,101525.90
2022-09-20T16:06:15.192Z,101527.82
2022-09-20T16:08:43.779Z,101539.36
2022-09-20T16:11:17.256Z,101538.67
2022-09-20T16:13:52.908Z,101540.09
2022-09-20T16:16:21.600Z,101538.87
2022-09-20T16:19:08.724Z,101539.58
2022-09-20T16:21:42.532Z,101544.84
2022-09-20T16:24:12.630Z,101553.26
2022-09-20T16:26:41.156Z,101557.13
2022-09-20T16:29:09.622Z,101561.86
2022-09-20T16:31:42.015Z,101562.39
2022-09-20T16:34:12.800Z,101560.65
2022-09-20T16:36:44.383Z,101559.26
2022-09-20T16:39:13.926Z,101562.23
2022-09-20T16:41:43.051Z,101567.49
2022-09-20T16:44:11.448Z,101569.27
2022-09-20T16:46:40.198Z,101570.84
2022-09-20T16:49:11.526Z,101573.30
2022-09-20T16:51:41.748Z,101578.02
2022-09-20T16:54:12.727Z,101579.09
2022-09-20T16:56:49.309Z,101580.84
2022-09-20T16:59:20.947Z,101587.33
2022-09-20T17:01:51.558Z,101590.30
2022-09-20T17:04:21.267Z,101596.95
2022-09-20T17:06:50.676Z,101602.58
2022-09-20T17:09:19.087Z,101609.92
2022-09-20T17:11:50.190Z,101613.77
2022-09-20T17:14:20.593Z,101614.13
2022-09-20T17:16:49.646Z,101615.00
2022-09-20T17:19:21.195Z,101617.80
2022-09-20T17:21:50.974Z,101617.11
2022-09-20T17:24:21.322Z,101615.71
2022-09-20T17:26:50.899Z,101615.54
2022-09-20T17:29:20.457Z,101617.11
2022-09-20T17:31:55.777Z,101620.61
2022-09-20T17:34:28.361Z,101620.44
2022-09-20T17:36:56.534Z,101621.31
2022-09-20T17:39:24.582Z,101618.35
2022-09-20T17:41:52.781Z,101623.59
2022-09-20T17:44:20.824Z,101625.86
2022-09-20T17:46:50.292Z,101626.91
2022-09-20T17:49:21.028Z,101626.21
2022-09-20T17:51:54.706Z,101630.41
2022-09-20T17:54:24.648Z,101637.41
2022-09-20T17:56:56.109Z,101638.29
2022-09-20T17:59:24.909Z,101636.36
2022-09-20T18:01:54.633Z,101640.56
2022-09-20T18:04:25.280Z,101645.11
2022-09-20T18:06:55.613Z,101647.73
2022-09-20T18:09:25.578Z,101651.75
2022-09-20T18:11:55.022Z,101651.58
2022-09-20T18:14:28.119Z,101652.10
2022-09-20T18:17:00.101Z,101650.70
2022-09-20T18:19:33.167Z,101646.67
2022-09-20T18:22:02.739Z,101648.08
2022-09-20T18:24:31.706Z,101650.33
2022-09-20T18:27:01.156Z,101652.23
2022-09-20T18:29:31.889Z,101660.45
2022-09-20T18:32:00.928Z,101659.04
2022-09-20T18:34:33.547Z,101664.64
2022-09-20T18:37:03.934Z,101669.70
2022-09-20T18:39:33.817Z,101674.59
2022-09-20T18:42:03.386Z,101682.27
2022-09-20T18:44:33.783Z,101683.84
2022-09-20T18:47:05.824Z,101690.30
2022-09-20T18:49:34.547Z,101686.10
2022-09-20T18:52:03.454Z,101684.36
2022-09-20T18:54:32.265Z,101678.94
2022-09-20T18:57:00.582Z,101680.00
2022-09-20T18:59:29.261Z,101692.41
2022-09-20T19:02:21.596Z,101693.11
2022-09-20T19:05:07.318Z,101705.17
2022-09-20T19:07:53.913Z,101704.83
2022-09-20T19:10:39.301Z,101704.65
2022-09-20T19:13:23.780Z,101708.33
2022-09-20T19:16:06.850Z,101713.40
2022-09-20T19:19:13.528Z,101727.73
2022-09-20T19:22:06.476Z,101723.71
2022-09-20T19:24:52.150Z,101716.55
2022-09-20T19:27:20.679Z,101712.52
2022-09-20T19:29:48.965Z,101716.73
2022-09-20T19:32:21.273Z,101713.98
2022-09-20T19:34:51.778Z,101710.48
2022-09-20T19:37:58.365Z,101715.38
2022-09-20T19:40:33.504Z,101708.21
2022-09-20T19:43:23.870Z,101710.14
2022-09-20T19:46:07.074Z,101711.37
2022-09-20T19:48:40.430Z,101708.23
2022-09-20T19:51:12.511Z,101712.25
2022-09-20T19:53:41.154Z,101720.29
2022-09-20T19:56:18.841Z,101728.34
2022-09-20T19:58:47.590Z,101730.79
2022-09-20T20:01:15.859Z,101739.88
2022-09-20T20:03:46.588Z,101748.62
2022-09-20T20:06:32.844Z,101743.55
2022-09-20T20:09:16.872Z,101740.94
2022-09-20T20:12:03.385Z,101741.81
2022-09-20T20:14:50.591Z,101736.56
2022-09-20T20:17:24.506Z,101736.73
2022-09-20T20:19:57.813Z,101740.06
2022-09-20T20:23:05.115Z,101739.89
2022-09-20T20:26:00.234Z,101746.70
2022-09-20T20:28:28.331Z,101745.14
2022-09-20T20:31:00.095Z,101747.41
2022-09-20T20:33:29.928Z,101750.73
2022-09-20T20:36:00.772Z,101749.15
2022-09-20T20:38:30.217Z,101751.25
2022-09-20T20:41:09.919Z,101755.80
2022-09-20T20:43:41.007Z,101758.42
2022-09-20T20:46:12.360Z,101762.79
2022-09-20T20:48:40.694Z,101777.64
2022-09-20T20:51:10.078Z,101776.23
2022-09-20T20:53:45.215Z,101776.57
2022-09-20T20:56:18.877Z,101778.29
2022-09-20T20:58:48.420Z,101776.67
2022-09-20T21:01:22.199Z,101778.95
2022-09-20T21:03:52.648Z,101778.59
2022-09-20T21:06:23.402Z,101777.89
2022-09-20T21:08:51.861Z,101781.05
2022-09-20T21:11:25.323Z,101774.93
2022-09-20T21:13:55.529Z,101780.34
2022-09-20T21:16:29.742Z,101783.32
2022-09-20T21:18:58.752Z,101784.72
2022-09-20T21:21:28.577Z,101779.47
2022-09-20T21:24:01.756Z,101784.71
2022-09-20T21:26:34.597Z,101778.23
2022-09-20T21:29:05.202Z,101780.85
2022-09-20T21:31:36.450Z,101786.80
2022-09-20T21:34:06.951Z,101791.88
2022-09-20T21:36:36.659Z,101792.23
2022-09-20T21:39:06.158Z,101794.85
2022-09-20T21:41:37.138Z,101804.64
2022-09-20T21:44:07.474Z,101805.34
2022-09-20T21:46:40.235Z,101806.73
2022-09-20T21:49:11.062Z,101808.31
2022-09-20T21:51:42.217Z,101812.16
2022-09-20T21:54:11.103Z,101813.39
2022-09-20T21:56:40.595Z,101811.98
2022-09-20T21:59:09.695Z,101811.98
2022-09-20T22:01:40.451Z,101811.64
2022-09-20T22:04:10.628Z,101812.69
2022-09-20T22:06:43.639Z,101814.09
2022-09-20T22:09:14.002Z,101814.09
2022-09-20T22:11:48.848Z,101815.31
2022-09-20T22:14:19.911Z,101818.27
2022-09-20T22:16:51.347Z,101824.73
2022-09-20T22:19:19.758Z,101830.31
2022-09-20T22:21:50.004Z,101825.59
2022-09-20T22:24:18.911Z,101828.38
2022-09-20T22:26:49.167Z,101831.17
2022-09-20T22:29:18.564Z,101834.83
2022-09-20T22:31:50.282Z,101840.23
2022-09-20T22:34:20.845Z,101840.55
2022-09-20T22:36:49.320Z,101840.36
2022-09-20T22:39:17.634Z,101839.66
2022-09-20T22:41:48.086Z,101835.98
2022-09-20T22:44:16.642Z,101835.96
2022-09-20T22:46:44.691Z,101837.70
2022-09-20T22:49:12.787Z,101834.20
2022-09-20T22:51:40.925Z,101837.88
2022-09-20T22:54:11.181Z,101835.95
2022-09-20T22:56:42.574Z,101838.75
2022-09-20T22:59:13.673Z,101835.08
2022-09-20T23:01:47.201Z,101836.30
2022-09-20T23:04:20.359Z,101836.83
2022-09-20T23:06:55.036Z,101836.31
2022-09-20T23:09:26.391Z,101837.55
2022-09-20T23:11:54.421Z,101838.78
2022-09-20T23:14:23.294Z,101839.13
2022-09-20T23:16:51.455Z,101838.26
2022-09-20T23:19:19.458Z,101846.13
2022-09-20T23:21:47.479Z,101854.85
2022-09-20T23:24:16.679Z,101857.83
2022-09-20T23:26:45.675Z,101856.60
2022-09-20T23:29:16.114Z,101858.34
2022-09-20T23:31:47.290Z,101851.86
2022-09-20T23:34:17.993Z,101848.72
2022-09-20T23:36:46.882Z,101845.92
2022-09-20T23:39:15.622Z,101846.44
2022-09-20T23:41:47.153Z,101849.25
2022-09-20T23:44:19.693Z,101844.19
2022-09-20T23:46:47.732Z,101843.66
2022-09-20T23:49:15.741Z,101841.04
2022-09-20T23:51:43.710Z,101842.44
2022-09-20T23:54:11.775Z,101843.31
2022-09-20T23:56:40.978Z,101840.85
2022-09-20T23:59:09.008Z,101845.37
